sensor_id;sensor_type;location;lat;lon;timestamp;temperature;humidity
13642;DHT22;6894;52.196;9.904;2024-03-23T00:55:14;7.70;99.90
13642;DHT22;6894;52.196;9.904;2024-03-23T00:57:41;7.60;99.90
13642;DHT22;6894;52.196;9.904;2024-03-23T01:00:07;7.60;99.90
13642;DHT22;6894;52.196;9.904;2024-03-23T01:02:36;7.60;80.10
13642;DHT22;6894;52.196;9.904;2024-03-23T01:05:02;7.60;11.30
13642;DHT22;6894;52.196;9.904;2024-03-23T01:07:29;7.60;1.00
13642;DHT22;6894;52.196;9.904;2024-03-23T01:09:55;7.60;1.00
13642;DHT22;6894;52.196;9.904;2024-03-23T01:12:23;7.50;1.00
13642;DHT22;6894;52.196;9.904;2024-03-23T01:14:49;7.60;1.00
13642;DHT22;6894;52.196;9.904;2024-03-23T01:17:16;7.60;1.00
13642;DHT22;6894;52.196;9.904;2024-03-23T01:19:42;7.60;8.70
13642;DHT22;6894;52.196;9.904;2024-03-23T01:22:09;7.60;29.80
13642;DHT22;6894;52.196;9.904;2024-03-23T01:24:35;7.60;63.30
13642;DHT22;6894;52.196;9.904;2024-03-23T01:27:02;7.60;94.10
13642;DHT22;6894;52.196;9.904;2024-03-23T01:29:30;7.50;96.10
13642;DHT22;6894;52.196;9.904;2024-03-23T01:31:57;7.50;99.90
13642;DHT22;6894;52.196;9.904;2024-03-23T01:34:23;7.50;99.90
13642;DHT22;6894;52.196;9.904;2024-03-23T01:36:50;7.50;99.90
13642;DHT22;6894;52.196;9.904;2024-03-23T01:39:16;7.40;99.90
13642;DHT22;6894;52.196;9.904;2024-03-23T01:41:43;7.40;99.90
13642;DHT22;6894;52.196;9.904;2024-03-23T01:44:09;7.40;99.90
13642;DHT22;6894;52.196;9.904;2024-03-23T01:46:38;7.40;99.90
13642;DHT22;6894;52.196;9.904;2024-03-23T01:49:05;7.40;99.90
13642;DHT22;6894;52.196;9.904;2024-03-23T01:51:32;7.40;99.90
13642;DHT22;6894;52.196;9.904;2024-03-23T01:54:00;7.40;99.90
13642;DHT22;6894;52.196;9.904;2024-03-23T01:56:29;7.30;99.90
13642;DHT22;6894;52.196;9.904;2024-03-23T01:58:55;7.40;99.90
13642;DHT22;6894;52.196;9.904;2024-03-23T02:01:22;7.30;99.90
13642;DHT22;6894;52.196;9.904;2024-03-23T02:03:50;7.30;99.90
13642;DHT22;6894;52.196;9.904;2024-03-23T02:06:17;7.40;99.90
13642;DHT22;6894;52.196;9.904;2024-03-23T02:08:43;7.30;99.90
13642;DHT22;6894;52.196;9.904;2024-03-23T02:11:10;7.30;99.90
13642;DHT22;6894;52.196;9.904;2024-03-23T02:13:36;7.30;99.90
13642;DHT22;6894;52.196;9.904;2024-03-23T02:16:05;7.30;99.90
13642;DHT22;6894;52.196;9.904;2024-03-23T02:18:31;7.30;99.90
13642;DHT22;6894;52.196;9.904;2024-03-23T02:20:59;7.30;99.90
13642;DHT22;6894;52.196;9.904;2024-03-23T02:23:26;7.30;99.90
13642;DHT22;6894;52.196;9.904;2024-03-23T02:25:53;7.20;99.90
13642;DHT22;6894;52.196;9.904;2024-03-23T02:28:19;7.30;99.90
13642;DHT22;6894;52.196;9.904;2024-03-23T02:30:48;7.20;99.90
13642;DHT22;6894;52.196;9.904;2024-03-23T02:33:13;7.20;99.90
13642;DHT22;6894;52.196;9.904;2024-03-23T02:35:40;7.20;99.90
13642;DHT22;6894;52.196;9.904;2024-03-23T02:38:06;7.20;99.90
13642;DHT22;6894;52.196;9.904;2024-03-23T02:40:35;7.20;99.90
13642;DHT22;6894;52.196;9.904;2024-03-23T02:43:02;7.20;99.90
13642;DHT22;6894;52.196;9.904;2024-03-23T02:45:29;7.20;99.90
13642;DHT22;6894;52.196;9.904;2024-03-23T02:47:55;7.20;99.90
13642;DHT22;6894;52.196;9.904;2024-03-23T02:50:22;7.20;99.90
13642;DHT22;6894;52.196;9.904;2024-03-23T02:52:48;7.10;99.90
13642;DHT22;6894;52.196;9.904;2024-03-23T02:55:15;7.10;99.90
13642;DHT22;6894;52.196;9.904;2024-03-23T02:57:43;7.10;99.90
13642;DHT22;6894;52.196;9.904;2024-03-23T03:00:10;7.10;99.90
13642;DHT22;6894;52.196;9.904;2024-03-23T03:02:36;7.00;99.90
13642;DHT22;6894;52.196;9.904;2024-03-23T03:05:04;7.00;99.90
13642;DHT22;6894;52.196;9.904;2024-03-23T03:07:30;7.10;99.90
13642;DHT22;6894;52.196;9.904;2024-03-23T03:09:57;7.10;99.90
13642;DHT22;6894;52.196;9.904;2024-03-23T03:12:23;7.10;99.90
13642;DHT22;6894;52.196;9.904;2024-03-23T03:14:51;7.10;99.90
13642;DHT22;6894;52.196;9.904;2024-03-23T03:17:17;7.00;99.90
13642;DHT22;6894;52.196;9.904;2024-03-23T03:19:44;7.00;99.90
13642;DHT22;6894;52.196;9.904;2024-03-23T03:22:11;7.10;1.00
13642;DHT22;6894;52.196;9.904;2024-03-23T03:24:38;7.10;1.00
13642;DHT22;6894;52.196;9.904;2024-03-23T03:27:04;7.10;1.00
13642;DHT22;6894;52.196;9.904;2024-03-23T03:29:32;7.00;1.00
13642;DHT22;6894;52.196;9.904;2024-03-23T03:32:02;7.10;1.00
13642;DHT22;6894;52.196;9.904;2024-03-23T03:34:28;7.10;1.00
13642;DHT22;6894;52.196;9.904;2024-03-23T03:36:56;7.10;1.00
13642;DHT22;6894;52.196;9.904;2024-03-23T03:39:22;7.10;1.00
13642;DHT22;6894;52.196;9.904;2024-03-23T03:41:49;7.10;1.00
13642;DHT22;6894;52.196;9.904;2024-03-23T03:44:15;7.10;1.00
13642;DHT22;6894;52.196;9.904;2024-03-23T03:46:42;7.00;1.00
13642;DHT22;6894;52.196;9.904;2024-03-23T03:49:09;7.10;1.00
13642;DHT22;6894;52.196;9.904;2024-03-23T03:51:36;7.10;1.00
13642;DHT22;6894;52.196;9.904;2024-03-23T03:54:02;7.00;1.00
13642;DHT22;6894;52.196;9.904;2024-03-23T03:56:29;7.10;1.00
13642;DHT22;6894;52.196;9.904;2024-03-23T03:58:55;7.00;1.00
13642;DHT22;6894;52.196;9.904;2024-03-23T04:01:22;7.00;1.00
13642;DHT22;6894;52.196;9.904;2024-03-23T04:03:48;7.00;1.00
13642;DHT22;6894;52.196;9.904;2024-03-23T04:06:20;7.00;1.00
13642;DHT22;6894;52.196;9.904;2024-03-23T04:08:46;6.90;1.00
13642;DHT22;6894;52.196;9.904;2024-03-23T04:11:13;6.90;1.00
13642;DHT22;6894;52.196;9.904;2024-03-23T04:13:39;7.00;1.00
13642;DHT22;6894;52.196;9.904;2024-03-23T04:16:07;7.00;1.00
13642;DHT22;6894;52.196;9.904;2024-03-23T04:18:33;6.90;1.00
13642;DHT22;6894;52.196;9.904;2024-03-23T04:21:00;6.90;1.00
13642;DHT22;6894;52.196;9.904;2024-03-23T04:23:27;6.90;1.00
13642;DHT22;6894;52.196;9.904;2024-03-23T04:25:54;6.80;1.00
13642;DHT22;6894;52.196;9.904;2024-03-23T04:28:20;6.80;1.00
13642;DHT22;6894;52.196;9.904;2024-03-23T04:30:47;6.80;1.00
13642;DHT22;6894;52.196;9.904;2024-03-23T04:33:13;6.70;1.00
13642;DHT22;6894;52.196;9.904;2024-03-23T04:35:40;6.70;1.00
13642;DHT22;6894;52.196;9.904;2024-03-23T04:38:06;6.70;1.00
13642;DHT22;6894;52.196;9.904;2024-03-23T04:40:35;6.70;1.00
13642;DHT22;6894;52.196;9.904;2024-03-23T04:43:03;6.60;1.00
13642;DHT22;6894;52.196;9.904;2024-03-23T04:45:30;6.50;1.00
13642;DHT22;6894;52.196;9.904;2024-03-23T04:47:57;6.50;1.00
13642;DHT22;6894;52.196;9.904;2024-03-23T04:50:24;6.50;1.00
13642;DHT22;6894;52.196;9.904;2024-03-23T04:52:50;6.50;1.00
13642;DHT22;6894;52.196;9.904;2024-03-23T04:55:16;6.50;1.00
13642;DHT22;6894;52.196;9.904;2024-03-23T04:57:45;6.50;1.00
13642;DHT22;6894;52.196;9.904;2024-03-23T05:00:12;6.50;1.00
13642;DHT22;6894;52.196;9.904;2024-03-23T05:02:44;6.50;1.00
13642;DHT22;6894;52.196;9.904;2024-03-23T05:05:10;6.40;1.00
13642;DHT22;6894;52.196;9.904;2024-03-23T05:07:37;6.50;1.00
13642;DHT22;6894;52.196;9.904;2024-03-23T05:10:04;6.40;1.00
13642;DHT22;6894;52.196;9.904;2024-03-23T05:12:31;6.40;1.00
13642;DHT22;6894;52.196;9.904;2024-03-23T05:14:58;6.40;1.00
13642;DHT22;6894;52.196;9.904;2024-03-23T05:17:25;6.40;1.00
13642;DHT22;6894;52.196;9.904;2024-03-23T05:19:52;6.40;1.00
13642;DHT22;6894;52.196;9.904;2024-03-23T05:22:18;6.50;1.00
13642;DHT22;6894;52.196;9.904;2024-03-23T05:24:45;6.40;1.00
13642;DHT22;6894;52.196;9.904;2024-03-23T05:27:11;6.40;1.00
13642;DHT22;6894;52.196;9.904;2024-03-23T05:29:38;6.40;1.00
13642;DHT22;6894;52.196;9.904;2024-03-23T05:32:06;6.40;1.00
13642;DHT22;6894;52.196;9.904;2024-03-23T05:34:33;6.40;1.00
13642;DHT22;6894;52.196;9.904;2024-03-23T05:36:59;6.40;1.00
13642;DHT22;6894;52.196;9.904;2024-03-23T05:39:26;6.40;1.00
13642;DHT22;6894;52.196;9.904;2024-03-23T05:41:52;6.40;1.00
13642;DHT22;6894;52.196;9.904;2024-03-23T05:44:19;6.40;1.00
13642;DHT22;6894;52.196;9.904;2024-03-23T05:46:45;6.40;1.00
13642;DHT22;6894;52.196;9.904;2024-03-23T05:49:15;6.40;1.00
13642;DHT22;6894;52.196;9.904;2024-03-23T05:51:41;6.40;1.00
13642;DHT22;6894;52.196;9.904;2024-03-23T05:54:08;6.40;1.00
13642;DHT22;6894;52.196;9.904;2024-03-23T05:56:34;6.40;1.00
13642;DHT22;6894;52.196;9.904;2024-03-23T05:59:01;6.40;1.00
13642;DHT22;6894;52.196;9.904;2024-03-23T06:01:28;6.30;1.00
13642;DHT22;6894;52.196;9.904;2024-03-23T06:03:58;6.30;1.00
13642;DHT22;6894;52.196;9.904;2024-03-23T06:06:25;6.20;99.90
13642;DHT22;6894;52.196;9.904;2024-03-23T06:08:52;6.10;1.00
13642;DHT22;6894;52.196;9.904;2024-03-23T06:11:18;6.10;99.90
13642;DHT22;6894;52.196;9.904;2024-03-23T06:13:45;6.00;1.00
13642;DHT22;6894;52.196;9.904;2024-03-23T06:16:11;6.00;1.00
13642;DHT22;6894;52.196;9.904;2024-03-23T06:18:37;6.00;99.90
13642;DHT22;6894;52.196;9.904;2024-03-23T06:21:04;6.00;99.90
13642;DHT22;6894;52.196;9.904;2024-03-23T06:23:33;6.00;1.00
13642;DHT22;6894;52.196;9.904;2024-03-23T06:25:58;6.00;1.00
13642;DHT22;6894;52.196;9.904;2024-03-23T06:28:25;6.00;99.90
13642;DHT22;6894;52.196;9.904;2024-03-23T06:30:51;6.10;99.90
13642;DHT22;6894;52.196;9.904;2024-03-23T06:33:18;6.10;99.90
13642;DHT22;6894;52.196;9.904;2024-03-23T06:35:50;6.10;1.00
13642;DHT22;6894;52.196;9.904;2024-03-23T06:38:17;6.10;1.00
13642;DHT22;6894;52.196;9.904;2024-03-23T06:40:45;6.10;1.00
13642;DHT22;6894;52.196;9.904;2024-03-23T06:43:14;6.10;1.00
13642;DHT22;6894;52.196;9.904;2024-03-23T06:45:40;6.10;1.00
13642;DHT22;6894;52.196;9.904;2024-03-23T06:48:07;6.10;1.00
13642;DHT22;6894;52.196;9.904;2024-03-23T06:50:33;6.10;1.00
13642;DHT22;6894;52.196;9.904;2024-03-23T06:53:01;6.10;1.00
13642;DHT22;6894;52.196;9.904;2024-03-23T06:55:27;6.20;1.00
13642;DHT22;6894;52.196;9.904;2024-03-23T06:57:56;6.10;1.00
13642;DHT22;6894;52.196;9.904;2024-03-23T07:00:22;6.10;1.00
13642;DHT22;6894;52.196;9.904;2024-03-23T07:02:51;6.10;1.00
13642;DHT22;6894;52.196;9.904;2024-03-23T07:05:17;6.00;1.00
13642;DHT22;6894;52.196;9.904;2024-03-23T07:07:44;6.10;1.00
13642;DHT22;6894;52.196;9.904;2024-03-23T07:10:10;6.10;1.00
13642;DHT22;6894;52.196;9.904;2024-03-23T07:12:37;6.10;1.00
13642;DHT22;6894;52.196;9.904;2024-03-23T07:15:05;6.10;1.00
13642;DHT22;6894;52.196;9.904;2024-03-23T07:17:32;6.10;1.00
13642;DHT22;6894;52.196;9.904;2024-03-23T07:19:58;6.20;1.00
13642;DHT22;6894;52.196;9.904;2024-03-23T07:22:26;6.10;1.00
13642;DHT22;6894;52.196;9.904;2024-03-23T07:24:52;6.20;1.00
13642;DHT22;6894;52.196;9.904;2024-03-23T07:27:19;6.20;1.00
13642;DHT22;6894;52.196;9.904;2024-03-23T07:29:45;6.20;1.00
13642;DHT22;6894;52.196;9.904;2024-03-23T07:32:13;6.30;1.00
13642;DHT22;6894;52.196;9.904;2024-03-23T07:34:39;6.30;1.00
13642;DHT22;6894;52.196;9.904;2024-03-23T07:37:09;6.30;1.00
13642;DHT22;6894;52.196;9.904;2024-03-23T07:39:34;6.30;1.00
13642;DHT22;6894;52.196;9.904;2024-03-23T07:42:02;6.30;1.00
13642;DHT22;6894;52.196;9.904;2024-03-23T07:44:28;6.40;1.00
13642;DHT22;6894;52.196;9.904;2024-03-23T07:46:55;6.40;1.00
13642;DHT22;6894;52.196;9.904;2024-03-23T07:49:22;6.40;1.00
13642;DHT22;6894;52.196;9.904;2024-03-23T07:51:49;6.40;1.00
13642;DHT22;6894;52.196;9.904;2024-03-23T07:54:15;6.50;1.00
13642;DHT22;6894;52.196;9.904;2024-03-23T07:56:42;6.50;1.00
13642;DHT22;6894;52.196;9.904;2024-03-23T07:59:08;6.50;1.00
13642;DHT22;6894;52.196;9.904;2024-03-23T08:01:34;6.50;1.00
13642;DHT22;6894;52.196;9.904;2024-03-23T08:04:00;6.50;1.00
13642;DHT22;6894;52.196;9.904;2024-03-23T08:06:29;6.50;1.00
13642;DHT22;6894;52.196;9.904;2024-03-23T08:08:56;6.60;1.00
13642;DHT22;6894;52.196;9.904;2024-03-23T08:11:26;6.60;1.00
13642;DHT22;6894;52.196;9.904;2024-03-23T08:13:52;6.70;15.20
13642;DHT22;6894;52.196;9.904;2024-03-23T08:16:19;6.70;92.50
13642;DHT22;6894;52.196;9.904;2024-03-23T08:18:45;6.70;99.90
13642;DHT22;6894;52.196;9.904;2024-03-23T08:21:12;6.70;1.00
13642;DHT22;6894;52.196;9.904;2024-03-23T08:23:39;6.70;1.00
13642;DHT22;6894;52.196;9.904;2024-03-23T08:26:07;6.70;1.00
13642;DHT22;6894;52.196;9.904;2024-03-23T08:28:34;6.80;1.00
13642;DHT22;6894;52.196;9.904;2024-03-23T08:31:03;6.80;1.00
13642;DHT22;6894;52.196;9.904;2024-03-23T08:33:29;6.90;41.70
13642;DHT22;6894;52.196;9.904;2024-03-23T08:35:57;6.90;99.90
13642;DHT22;6894;52.196;9.904;2024-03-23T08:38:23;7.00;99.90
13642;DHT22;6894;52.196;9.904;2024-03-23T08:40:57;7.00;99.90
13642;DHT22;6894;52.196;9.904;2024-03-23T08:43:24;7.10;99.90
13642;DHT22;6894;52.196;9.904;2024-03-23T08:45:50;7.20;99.90
13642;DHT22;6894;52.196;9.904;2024-03-23T08:48:17;7.30;99.90
13642;DHT22;6894;52.196;9.904;2024-03-23T08:50:45;7.30;99.90
13642;DHT22;6894;52.196;9.904;2024-03-23T08:53:11;7.40;99.90
13642;DHT22;6894;52.196;9.904;2024-03-23T08:55:38;7.60;99.90
13642;DHT22;6894;52.196;9.904;2024-03-23T08:58:06;7.90;1.00
13642;DHT22;6894;52.196;9.904;2024-03-23T09:00:34;8.20;1.00
13642;DHT22;6894;52.196;9.904;2024-03-23T09:03:00;8.40;1.00
13642;DHT22;6894;52.196;9.904;2024-03-23T09:05:27;8.40;99.90
13642;DHT22;6894;52.196;9.904;2024-03-23T09:07:54;8.60;1.00
13642;DHT22;6894;52.196;9.904;2024-03-23T09:10:21;8.50;1.00
13642;DHT22;6894;52.196;9.904;2024-03-23T09:12:48;8.70;1.00
13642;DHT22;6894;52.196;9.904;2024-03-23T09:15:16;8.70;1.00
13642;DHT22;6894;52.196;9.904;2024-03-23T09:17:42;8.60;1.00
13642;DHT22;6894;52.196;9.904;2024-03-23T09:20:10;8.60;1.00
13642;DHT22;6894;52.196;9.904;2024-03-23T09:22:36;8.40;99.90
13642;DHT22;6894;52.196;9.904;2024-03-23T09:25:03;8.20;1.00
13642;DHT22;6894;52.196;9.904;2024-03-23T09:27:30;7.90;1.00
13642;DHT22;6894;52.196;9.904;2024-03-23T09:29:57;7.90;99.90
13642;DHT22;6894;52.196;9.904;2024-03-23T09:32:24;7.90;1.00
13642;DHT22;6894;52.196;9.904;2024-03-23T09:34:51;7.90;1.00
13642;DHT22;6894;52.196;9.904;2024-03-23T09:37:17;8.20;1.00
13642;DHT22;6894;52.196;9.904;2024-03-23T09:39:44;8.60;99.90
13642;DHT22;6894;52.196;9.904;2024-03-23T09:42:10;9.10;99.90
13642;DHT22;6894;52.196;9.904;2024-03-23T09:44:37;9.30;1.00
13642;DHT22;6894;52.196;9.904;2024-03-23T09:47:03;9.40;1.00
13642;DHT22;6894;52.196;9.904;2024-03-23T09:49:33;9.80;1.00
13642;DHT22;6894;52.196;9.904;2024-03-23T09:52:02;9.60;1.00
13642;DHT22;6894;52.196;9.904;2024-03-23T09:54:29;9.30;1.00
13642;DHT22;6894;52.196;9.904;2024-03-23T09:56:55;9.00;1.00
13642;DHT22;6894;52.196;9.904;2024-03-23T09:59:21;8.80;1.00
13642;DHT22;6894;52.196;9.904;2024-03-23T10:01:48;8.70;1.00
13642;DHT22;6894;52.196;9.904;2024-03-23T10:04:38;8.70;99.90
13642;DHT22;6894;52.196;9.904;2024-03-23T10:07:14;8.50;1.00
13642;DHT22;6894;52.196;9.904;2024-03-23T10:09:43;8.40;99.90
13642;DHT22;6894;52.196;9.904;2024-03-23T10:12:10;8.40;99.90
13642;DHT22;6894;52.196;9.904;2024-03-23T10:14:37;8.70;99.90
13642;DHT22;6894;52.196;9.904;2024-03-23T10:17:15;9.30;1.00
13642;DHT22;6894;52.196;9.904;2024-03-23T10:19:45;9.70;99.90
13642;DHT22;6894;52.196;9.904;2024-03-23T10:22:14;9.90;1.00
13642;DHT22;6894;52.196;9.904;2024-03-23T10:24:41;9.90;99.90
13642;DHT22;6894;52.196;9.904;2024-03-23T10:27:07;9.60;1.00
13642;DHT22;6894;52.196;9.904;2024-03-23T10:29:34;9.20;54.80
13642;DHT22;6894;52.196;9.904;2024-03-23T10:32:10;9.10;1.00
13642;DHT22;6894;52.196;9.904;2024-03-23T10:34:38;9.10;1.00
13642;DHT22;6894;52.196;9.904;2024-03-23T10:37:06;9.60;70.60
13642;DHT22;6894;52.196;9.904;2024-03-23T10:39:34;9.80;99.90
13642;DHT22;6894;52.196;9.904;2024-03-23T10:42:02;10.20;99.90
13642;DHT22;6894;52.196;9.904;2024-03-23T10:44:30;10.60;99.90
13642;DHT22;6894;52.196;9.904;2024-03-23T10:46:57;10.90;58.20
13642;DHT22;6894;52.196;9.904;2024-03-23T10:49:27;11.30;1.00
13642;DHT22;6894;52.196;9.904;2024-03-23T10:51:56;11.20;99.90
13642;DHT22;6894;52.196;9.904;2024-03-23T10:54:25;11.20;1.00
13642;DHT22;6894;52.196;9.904;2024-03-23T10:56:57;11.20;1.00
13642;DHT22;6894;52.196;9.904;2024-03-23T10:59:26;10.70;99.90
13642;DHT22;6894;52.196;9.904;2024-03-23T11:01:56;9.50;1.00
13642;DHT22;6894;52.196;9.904;2024-03-23T11:04:33;9.00;1.00
13642;DHT22;6894;52.196;9.904;2024-03-23T11:06:59;8.80;1.00
13642;DHT22;6894;52.196;9.904;2024-03-23T11:09:40;8.80;1.00
13642;DHT22;6894;52.196;9.904;2024-03-23T11:12:29;8.80;1.00
13642;DHT22;6894;52.196;9.904;2024-03-23T11:15:02;9.10;1.00
13642;DHT22;6894;52.196;9.904;2024-03-23T11:17:29;9.70;37.30
13642;DHT22;6894;52.196;9.904;2024-03-23T11:19:57;10.30;1.00
13642;DHT22;6894;52.196;9.904;2024-03-23T11:22:38;10.80;1.00
13642;DHT22;6894;52.196;9.904;2024-03-23T11:25:17;11.30;99.90
13642;DHT22;6894;52.196;9.904;2024-03-23T11:27:44;11.70;99.90
13642;DHT22;6894;52.196;9.904;2024-03-23T11:30:13;12.10;1.00
13642;DHT22;6894;52.196;9.904;2024-03-23T11:32:39;12.10;1.00
13642;DHT22;6894;52.196;9.904;2024-03-23T11:35:07;11.80;99.90
13642;DHT22;6894;52.196;9.904;2024-03-23T11:37:33;11.00;1.00
13642;DHT22;6894;52.196;9.904;2024-03-23T11:40:00;10.50;99.90
13642;DHT22;6894;52.196;9.904;2024-03-23T11:42:28;10.60;1.00
13642;DHT22;6894;52.196;9.904;2024-03-23T11:44:55;10.70;1.00
13642;DHT22;6894;52.196;9.904;2024-03-23T11:47:21;10.40;99.90
13642;DHT22;6894;52.196;9.904;2024-03-23T11:49:49;10.30;1.00
13642;DHT22;6894;52.196;9.904;2024-03-23T11:52:16;10.30;1.00
13642;DHT22;6894;52.196;9.904;2024-03-23T11:54:43;10.00;99.90
13642;DHT22;6894;52.196;9.904;2024-03-23T11:57:09;9.90;1.00
13642;DHT22;6894;52.196;9.904;2024-03-23T11:59:39;9.70;1.00
13642;DHT22;6894;52.196;9.904;2024-03-23T12:02:09;10.00;99.90
13642;DHT22;6894;52.196;9.904;2024-03-23T12:04:37;10.50;1.00
13642;DHT22;6894;52.196;9.904;2024-03-23T12:07:10;11.30;99.90
13642;DHT22;6894;52.196;9.904;2024-03-23T12:09:37;11.70;1.00
13642;DHT22;6894;52.196;9.904;2024-03-23T12:12:08;12.00;99.90
13642;DHT22;6894;52.196;9.904;2024-03-23T12:14:35;12.20;1.00
13642;DHT22;6894;52.196;9.904;2024-03-23T12:17:10;12.00;1.00
13642;DHT22;6894;52.196;9.904;2024-03-23T12:19:37;11.00;1.00
13642;DHT22;6894;52.196;9.904;2024-03-23T12:22:03;10.20;1.00
13642;DHT22;6894;52.196;9.904;2024-03-23T12:24:30;9.40;99.90
13642;DHT22;6894;52.196;9.904;2024-03-23T12:27:00;8.60;1.00
13642;DHT22;6894;52.196;9.904;2024-03-23T12:29:29;8.10;99.90
13642;DHT22;6894;52.196;9.904;2024-03-23T12:31:55;8.00;1.00
13642;DHT22;6894;52.196;9.904;2024-03-23T12:34:23;8.20;1.00
13642;DHT22;6894;52.196;9.904;2024-03-23T12:36:49;8.40;99.90
13642;DHT22;6894;52.196;9.904;2024-03-23T12:39:16;8.80;1.00
13642;DHT22;6894;52.196;9.904;2024-03-23T12:41:42;9.10;99.90
13642;DHT22;6894;52.196;9.904;2024-03-23T12:44:09;9.20;1.00
13642;DHT22;6894;52.196;9.904;2024-03-23T12:46:37;9.00;99.90
13642;DHT22;6894;52.196;9.904;2024-03-23T12:49:04;8.90;99.90
13642;DHT22;6894;52.196;9.904;2024-03-23T12:51:32;8.70;99.90
13642;DHT22;6894;52.196;9.904;2024-03-23T12:53:59;8.60;99.90
13642;DHT22;6894;52.196;9.904;2024-03-23T12:56:25;8.50;99.90
13642;DHT22;6894;52.196;9.904;2024-03-23T12:58:53;8.40;1.00
13642;DHT22;6894;52.196;9.904;2024-03-23T13:01:20;8.20;1.00
13642;DHT22;6894;52.196;9.904;2024-03-23T13:03:47;7.30;1.00
13642;DHT22;6894;52.196;9.904;2024-03-23T13:06:14;6.50;1.00
13642;DHT22;6894;52.196;9.904;2024-03-23T13:08:44;6.30;1.00
13642;DHT22;6894;52.196;9.904;2024-03-23T13:11:10;6.10;1.00
13642;DHT22;6894;52.196;9.904;2024-03-23T13:13:37;6.20;1.00
13642;DHT22;6894;52.196;9.904;2024-03-23T13:16:03;6.30;99.90
13642;DHT22;6894;52.196;9.904;2024-03-23T13:18:31;6.40;99.90
13642;DHT22;6894;52.196;9.904;2024-03-23T13:20:57;6.70;1.00
13642;DHT22;6894;52.196;9.904;2024-03-23T13:23:24;7.10;1.00
13642;DHT22;6894;52.196;9.904;2024-03-23T13:25:52;7.40;1.00
13642;DHT22;6894;52.196;9.904;2024-03-23T13:28:19;7.80;99.90
13642;DHT22;6894;52.196;9.904;2024-03-23T13:30:52;8.00;1.00
13642;DHT22;6894;52.196;9.904;2024-03-23T13:33:19;8.20;1.00
13642;DHT22;6894;52.196;9.904;2024-03-23T13:35:52;8.10;1.00
13642;DHT22;6894;52.196;9.904;2024-03-23T13:38:19;8.10;1.00
13642;DHT22;6894;52.196;9.904;2024-03-23T13:40:54;7.90;1.00
13642;DHT22;6894;52.196;9.904;2024-03-23T13:43:22;7.70;1.00
13642;DHT22;6894;52.196;9.904;2024-03-23T13:45:49;7.60;1.00
13642;DHT22;6894;52.196;9.904;2024-03-23T13:48:18;7.70;1.00
13642;DHT22;6894;52.196;9.904;2024-03-23T13:50:45;7.90;99.90
13642;DHT22;6894;52.196;9.904;2024-03-23T13:53:13;8.30;99.90
13642;DHT22;6894;52.196;9.904;2024-03-23T13:55:46;8.60;1.00
13642;DHT22;6894;52.196;9.904;2024-03-23T13:58:15;8.70;1.00
13642;DHT22;6894;52.196;9.904;2024-03-23T14:00:41;8.80;1.00
13642;DHT22;6894;52.196;9.904;2024-03-23T14:03:09;8.90;99.90
13642;DHT22;6894;52.196;9.904;2024-03-23T14:05:35;8.90;1.00
13642;DHT22;6894;52.196;9.904;2024-03-23T14:08:04;9.00;54.10
13642;DHT22;6894;52.196;9.904;2024-03-23T14:10:30;8.80;99.90
13642;DHT22;6894;52.196;9.904;2024-03-23T14:12:57;8.80;1.00
13642;DHT22;6894;52.196;9.904;2024-03-23T14:15:24;8.70;38.40
13642;DHT22;6894;52.196;9.904;2024-03-23T14:17:51;8.50;99.90
13642;DHT22;6894;52.196;9.904;2024-03-23T14:20:17;8.40;16.00
13642;DHT22;6894;52.196;9.904;2024-03-23T14:22:44;8.10;1.00
13642;DHT22;6894;52.196;9.904;2024-03-23T14:25:10;7.70;99.90
13642;DHT22;6894;52.196;9.904;2024-03-23T14:27:37;7.40;90.70
13642;DHT22;6894;52.196;9.904;2024-03-23T14:30:04;7.20;99.90
13642;DHT22;6894;52.196;9.904;2024-03-23T14:32:33;7.00;1.00
13642;DHT22;6894;52.196;9.904;2024-03-23T14:35:00;7.20;1.00
13642;DHT22;6894;52.196;9.904;2024-03-23T14:37:26;7.10;99.90
13642;DHT22;6894;52.196;9.904;2024-03-23T14:39:52;7.00;99.90
13642;DHT22;6894;52.196;9.904;2024-03-23T14:42:19;6.80;99.90
13642;DHT22;6894;52.196;9.904;2024-03-23T14:44:45;6.30;1.00
13642;DHT22;6894;52.196;9.904;2024-03-23T14:47:12;5.90;99.90
13642;DHT22;6894;52.196;9.904;2024-03-23T14:49:39;5.60;1.00
13642;DHT22;6894;52.196;9.904;2024-03-23T14:52:06;5.60;1.00
13642;DHT22;6894;52.196;9.904;2024-03-23T14:54:34;5.70;1.00
13642;DHT22;6894;52.196;9.904;2024-03-23T14:57:02;5.80;1.00
13642;DHT22;6894;52.196;9.904;2024-03-23T14:59:28;6.10;33.20
13642;DHT22;6894;52.196;9.904;2024-03-23T15:01:56;6.50;1.00
13642;DHT22;6894;52.196;9.904;2024-03-23T15:04:21;6.80;99.90
13642;DHT22;6894;52.196;9.904;2024-03-23T15:06:50;7.20;99.90
13642;DHT22;6894;52.196;9.904;2024-03-23T15:09:16;7.50;1.00
13642;DHT22;6894;52.196;9.904;2024-03-23T15:11:43;7.80;1.00
13642;DHT22;6894;52.196;9.904;2024-03-23T15:14:09;7.70;1.00
13642;DHT22;6894;52.196;9.904;2024-03-23T15:16:37;7.40;99.90
13642;DHT22;6894;52.196;9.904;2024-03-23T15:19:03;7.30;99.90
13642;DHT22;6894;52.196;9.904;2024-03-23T15:21:31;7.30;1.00
13642;DHT22;6894;52.196;9.904;2024-03-23T15:23:58;7.40;1.00
13642;DHT22;6894;52.196;9.904;2024-03-23T15:26:25;7.50;1.00
13642;DHT22;6894;52.196;9.904;2024-03-23T15:28:51;7.70;1.00
13642;DHT22;6894;52.196;9.904;2024-03-23T15:31:36;8.00;1.00
13642;DHT22;6894;52.196;9.904;2024-03-23T15:34:02;7.90;1.00
13642;DHT22;6894;52.196;9.904;2024-03-23T15:36:30;7.90;1.00
13642;DHT22;6894;52.196;9.904;2024-03-23T15:38:57;8.00;1.00
13642;DHT22;6894;52.196;9.904;2024-03-23T15:41:24;8.00;99.90
13642;DHT22;6894;52.196;9.904;2024-03-23T15:43:50;7.90;99.90
13642;DHT22;6894;52.196;9.904;2024-03-23T15:46:17;7.90;99.90
13642;DHT22;6894;52.196;9.904;2024-03-23T15:48:44;7.80;99.90
13642;DHT22;6894;52.196;9.904;2024-03-23T15:51:13;7.60;1.00
13642;DHT22;6894;52.196;9.904;2024-03-23T15:53:40;7.50;99.90
13642;DHT22;6894;52.196;9.904;2024-03-23T15:56:08;7.40;1.00
13642;DHT22;6894;52.196;9.904;2024-03-23T15:58:36;7.20;1.00
13642;DHT22;6894;52.196;9.904;2024-03-23T16:01:02;7.20;99.90
13642;DHT22;6894;52.196;9.904;2024-03-23T16:03:30;7.20;99.90
13642;DHT22;6894;52.196;9.904;2024-03-23T16:05:58;7.10;1.00
13642;DHT22;6894;52.196;9.904;2024-03-23T16:08:26;7.00;1.00
13642;DHT22;6894;52.196;9.904;2024-03-23T16:10:52;7.00;1.00
13642;DHT22;6894;52.196;9.904;2024-03-23T16:13:21;6.90;1.00
13642;DHT22;6894;52.196;9.904;2024-03-23T16:15:54;6.80;6.90
13642;DHT22;6894;52.196;9.904;2024-03-23T16:18:22;6.70;13.50
13642;DHT22;6894;52.196;9.904;2024-03-23T16:20:55;6.50;1.00
13642;DHT22;6894;52.196;9.904;2024-03-23T16:23:23;6.40;99.90
13642;DHT22;6894;52.196;9.904;2024-03-23T16:25:49;6.80;1.00
13642;DHT22;6894;52.196;9.904;2024-03-23T16:28:23;6.40;1.00
13642;DHT22;6894;52.196;9.904;2024-03-23T16:30:56;6.50;2.60
13642;DHT22;6894;52.196;9.904;2024-03-23T16:33:24;6.70;16.60
13642;DHT22;6894;52.196;9.904;2024-03-23T16:35:57;6.80;1.00
13642;DHT22;6894;52.196;9.904;2024-03-23T16:38:25;6.80;99.90
13642;DHT22;6894;52.196;9.904;2024-03-23T16:40:57;6.90;1.00
13642;DHT22;6894;52.196;9.904;2024-03-23T16:43:26;7.00;1.00
13642;DHT22;6894;52.196;9.904;2024-03-23T16:45:54;7.00;99.90
13642;DHT22;6894;52.196;9.904;2024-03-23T16:48:21;7.00;1.00
13642;DHT22;6894;52.196;9.904;2024-03-23T16:50:47;6.90;1.00
13642;DHT22;6894;52.196;9.904;2024-03-23T16:53:14;6.80;1.00
13642;DHT22;6894;52.196;9.904;2024-03-23T16:55:41;6.90;1.00
13642;DHT22;6894;52.196;9.904;2024-03-23T16:58:08;6.80;1.00
13642;DHT22;6894;52.196;9.904;2024-03-23T17:00:35;6.70;1.00
13642;DHT22;6894;52.196;9.904;2024-03-23T17:03:03;6.70;99.90
13642;DHT22;6894;52.196;9.904;2024-03-23T17:05:30;6.60;99.90